Time;durP1;ratioP1;P1;durP2;ratioP2;P2;SDS_P1;SDS_P2;PMS_P1;PMS_P2;Temp;Humidity;BMP_temperature;BMP_pressure;BME280_temperature;BME280_humidity;BME280_pressure;Samples;Min_cycle;Max_cycle;Signal;HPM_P1;HPM_P2
2022/08/31 00:06:00;;;;;;;7.53;2.20;;;18.40;99.90;;;;;;5051944;28;20561;-54
2022/08/31 00:08:28;;;;;;;9.05;2.10;;;18.40;99.90;;;;;;5051691;28;20247;-56
2022/08/31 00:10:54;;;;;;;7.60;2.33;;;18.40;99.90;;;;;;5052048;28;20162;-54
2022/08/31 00:13:21;;;;;;;10.75;2.40;;;18.30;99.90;;;;;;5051565;28;20319;-55
2022/08/31 00:15:47;;;;;;;6.53;1.90;;;18.30;99.90;;;;;;5051552;28;20659;-56
2022/08/31 00:18:13;;;;;;;7.07;2.35;;;18.30;99.90;;;;;;5051602;28;20200;-55
2022/08/31 00:20:39;;;;;;;9.88;2.20;;;18.30;99.90;;;;;;5051363;28;20184;-55
2022/08/31 00:23:08;;;;;;;6.70;1.92;;;18.20;99.90;;;;;;5083807;28;20173;-56
2022/08/31 00:25:35;;;;;;;8.63;1.83;;;18.20;99.90;;;;;;5051398;28;20660;-55
2022/08/31 00:28:02;;;;;;;7.18;1.95;;;18.20;99.90;;;;;;5051434;28;20173;-55
2022/08/31 00:30:29;;;;;;;8.85;1.80;;;18.30;99.90;;;;;;5051200;28;20176;-54
2022/08/31 00:32:55;;;;;;;6.28;2.03;;;18.20;99.90;;;;;;5051284;28;20766;-54
2022/08/31 00:35:20;;;;;;;7.20;2.05;;;18.20;99.90;;;;;;5051252;28;20213;-54
2022/08/31 00:37:46;;;;;;;4.03;1.83;;;18.20;99.90;;;;;;5050953;28;20228;-55
2022/08/31 00:40:12;;;;;;;9.30;2.47;;;18.20;99.90;;;;;;5051108;28;20165;-55
2022/08/31 00:42:38;;;;;;;7.63;1.70;;;18.20;99.90;;;;;;5051014;28;20303;-55
2022/08/31 00:45:06;;;;;;;7.85;2.00;;;18.20;99.90;;;;;;5051080;28;20168;-55
2022/08/31 00:47:31;;;;;;;9.80;2.33;;;18.20;99.90;;;;;;5051026;28;20200;-55
2022/08/31 00:49:58;;;;;;;5.82;1.95;;;18.20;99.90;;;;;;5050838;28;20671;-55
2022/08/31 00:52:29;;;;;;;7.55;1.85;;;18.20;99.90;;;;;;5050156;28;20235;-54
2022/08/31 00:55:03;;;;;;;7.35;1.92;;;18.20;99.90;;;;;;5050789;28;20212;-54
2022/08/31 00:57:32;;;;;;;7.97;2.15;;;18.20;99.90;;;;;;5050896;28;20181;-54
2022/08/31 01:00:00;;;;;;;15.65;2.72;;;18.20;99.90;;;;;;5050655;28;20192;-54
2022/08/31 01:02:26;;;;;;;4.28;1.60;;;18.20;99.90;;;;;;5050692;28;20177;-54
2022/08/31 01:04:51;;;;;;;9.02;2.15;;;18.20;99.90;;;;;;5049571;28;20295;-54
2022/08/31 01:07:17;;;;;;;9.02;2.10;;;18.20;99.90;;;;;;5050765;28;20612;-54
2022/08/31 01:09:44;;;;;;;7.72;1.90;;;18.20;99.90;;;;;;5050714;28;20671;-54
2022/08/31 01:12:11;;;;;;;11.27;2.30;;;18.20;99.90;;;;;;5050782;28;20188;-55
2022/08/31 01:14:38;;;;;;;7.90;2.28;;;18.20;99.90;;;;;;5051114;28;20671;-54
2022/08/31 01:17:05;;;;;;;10.40;2.03;;;18.20;99.90;;;;;;5050616;28;20177;-55
2022/08/31 01:19:40;;;;;;;11.48;2.10;;;18.10;99.90;;;;;;5050898;28;20181;-55
2022/08/31 01:22:08;;;;;;;10.55;2.13;;;18.10;99.90;;;;;;5050725;28;20234;-54
2022/08/31 01:24:36;;;;;;;8.95;2.28;;;18.10;99.90;;;;;;5050541;28;20188;-55
2022/08/31 01:27:03;;;;;;;7.78;2.50;;;18.10;99.90;;;;;;5050666;28;20169;-54
2022/08/31 01:29:30;;;;;;;8.50;2.70;;;18.00;99.90;;;;;;5050497;28;20563;-56
2022/08/31 01:31:56;;;;;;;10.15;2.00;;;18.00;99.90;;;;;;5050575;28;20158;-54
2022/08/31 01:34:23;;;;;;;9.85;2.28;;;17.90;99.90;;;;;;5050544;28;20177;-55
2022/08/31 01:36:50;;;;;;;8.38;2.17;;;17.80;99.90;;;;;;5050370;28;20716;-55
2022/08/31 01:39:16;;;;;;;8.80;2.38;;;17.70;99.90;;;;;;5050561;28;20188;-55
2022/08/31 01:41:42;;;;;;;8.73;2.03;;;17.60;99.90;;;;;;5050436;28;20166;-55
2022/08/31 01:44:14;;;;;;;12.85;2.35;;;17.50;99.90;;;;;;5050431;28;20189;-54
2022/08/31 01:46:41;;;;;;;10.68;2.40;;;17.50;99.90;;;;;;5050294;28;20169;-55
2022/08/31 01:49:07;;;;;;;10.45;2.10;;;17.40;99.90;;;;;;5050258;28;20209;-54
2022/08/31 01:51:33;;;;;;;8.23;2.20;;;17.30;99.90;;;;;;5050326;28;20593;-55
2022/08/31 01:53:58;;;;;;;7.28;2.25;;;17.20;99.90;;;;;;5050332;28;20185;-55
2022/08/31 01:56:30;;;;;;;8.27;2.58;;;17.20;99.90;;;;;;5050892;28;20518;-54
2022/08/31 01:58:56;;;;;;;7.50;2.42;;;17.10;99.90;;;;;;5050463;28;20192;-54
2022/08/31 02:01:27;;;;;;;9.27;2.92;;;17.00;99.90;;;;;;5050319;28;20181;-55
2022/08/31 02:03:53;;;;;;;15.02;2.50;;;17.00;99.90;;;;;;5051100;28;20191;-55
2022/08/31 02:06:19;;;;;;;8.00;2.22;;;16.90;99.90;;;;;;5054126;28;20625;-59
2022/08/31 02:08:44;;;;;;;9.15;2.53;;;16.90;99.90;;;;;;5053950;28;20346;-54
2022/08/31 02:11:10;;;;;;;10.00;2.65;;;16.90;99.90;;;;;;5053850;28;20462;-54
2022/08/31 02:13:36;;;;;;;8.10;2.50;;;16.80;99.90;;;;;;5053890;28;20203;-54
2022/08/31 02:16:02;;;;;;;5.05;2.60;;;16.80;99.90;;;;;;5054078;28;20173;-55
2022/08/31 02:18:29;;;;;;;13.50;2.40;;;16.80;99.90;;;;;;5053894;28;20201;-54
2022/08/31 02:20:55;;;;;;;9.27;2.20;;;16.70;99.90;;;;;;5053777;28;20170;-55
2022/08/31 02:23:20;;;;;;;10.38;2.90;;;16.70;99.90;;;;;;5053737;28;20636;-54
2022/08/31 02:25:46;;;;;;;11.93;2.20;;;16.70;99.90;;;;;;5053513;28;20173;-55
2022/08/31 02:28:13;;;;;;;8.98;2.47;;;16.70;99.90;;;;;;5053483;28;20169;-54
2022/08/31 02:30:42;;;;;;;9.13;2.45;;;16.70;99.90;;;;;;5053801;28;20179;-54
2022/08/31 02:33:08;;;;;;;7.22;2.15;;;16.70;99.90;;;;;;5053580;28;20631;-55
2022/08/31 02:35:34;;;;;;;6.47;2.55;;;16.70;99.90;;;;;;5053470;28;20180;-55
2022/08/31 02:38:00;;;;;;;8.55;2.53;;;16.70;99.90;;;;;;5053337;28;20229;-54
2022/08/31 02:40:26;;;;;;;11.32;2.60;;;16.60;99.90;;;;;;5053362;28;20176;-54
2022/08/31 02:42:52;;;;;;;11.38;2.80;;;16.60;99.90;;;;;;5053304;28;20199;-54
2022/08/31 02:45:17;;;;;;;8.07;2.75;;;16.60;99.90;;;;;;5052243;28;20620;-55
2022/08/31 02:47:43;;;;;;;9.45;2.60;;;16.50;99.90;;;;;;5053311;28;20182;-55
2022/08/31 02:50:09;;;;;;;5.50;2.08;;;16.50;99.90;;;;;;5053221;28;20204;-55
2022/08/31 02:52:35;;;;;;;9.80;2.88;;;16.50;99.90;;;;;;5053146;28;20246;-54
2022/08/31 02:55:01;;;;;;;10.95;2.65;;;16.50;99.90;;;;;;5053101;28;20177;-55
2022/08/31 02:57:26;;;;;;;11.27;2.60;;;16.40;99.90;;;;;;5053238;28;20231;-55
2022/08/31 02:59:52;;;;;;;11.15;3.20;;;16.40;99.90;;;;;;5053035;28;20180;-54
2022/08/31 03:02:18;;;;;;;11.93;2.90;;;16.30;99.90;;;;;;5052937;28;20702;-55
2022/08/31 03:04:44;;;;;;;9.15;2.58;;;16.30;99.90;;;;;;5053051;28;20173;-54
2022/08/31 03:07:09;;;;;;;6.65;2.67;;;16.30;99.90;;;;;;5052886;28;20272;-54
2022/08/31 03:09:35;;;;;;;9.02;3.20;;;16.30;99.90;;;;;;5052761;28;20686;-54
2022/08/31 03:12:01;;;;;;;8.23;2.45;;;16.20;99.90;;;;;;5052716;28;20165;-54
2022/08/31 03:14:27;;;;;;;11.55;2.80;;;16.20;99.90;;;;;;5052823;28;20177;-54
2022/08/31 03:16:53;;;;;;;5.80;2.65;;;16.10;99.90;;;;;;5051966;28;20180;-54
2022/08/31 03:19:19;;;;;;;10.50;2.92;;;16.10;99.90;;;;;;5052635;28;20169;-55
2022/08/31 03:21:45;;;;;;;12.40;3.22;;;16.00;99.90;;;;;;5052548;28;20161;-55
2022/08/31 03:24:16;;;;;;;7.75;2.92;;;16.00;99.90;;;;;;5052491;28;20181;-55
2022/08/31 03:26:43;;;;;;;9.63;3.08;;;16.00;99.90;;;;;;5052645;28;20184;-57
2022/08/31 03:29:09;;;;;;;7.30;2.83;;;16.00;99.90;;;;;;5052470;28;20209;-55
2022/08/31 03:31:35;;;;;;;7.40;2.60;;;15.90;99.90;;;;;;5052651;28;20197;-55
2022/08/31 03:34:01;;;;;;;8.00;3.47;;;15.90;99.90;;;;;;5052503;28;20250;-55
2022/08/31 03:36:27;;;;;;;11.85;3.22;;;15.90;99.90;;;;;;5052226;28;20169;-54
2022/08/31 03:38:52;;;;;;;16.23;3.67;;;15.90;99.90;;;;;;5052182;28;20236;-55
2022/08/31 03:41:22;;;;;;;7.47;2.97;;;15.80;99.90;;;;;;5052224;28;20181;-55
2022/08/31 03:43:48;;;;;;;10.45;3.63;;;15.80;99.90;;;;;;5052215;28;20165;-55
2022/08/31 03:46:13;;;;;;;12.85;3.55;;;15.80;99.90;;;;;;5052256;28;20628;-54
2022/08/31 03:48:39;;;;;;;10.40;3.42;;;15.80;99.90;;;;;;5052208;28;20567;-54
2022/08/31 03:51:05;;;;;;;9.88;3.22;;;15.80;99.90;;;;;;5051956;28;20201;-55
2022/08/31 03:53:31;;;;;;;13.65;3.53;;;15.80;99.90;;;;;;5051999;28;20231;-54
2022/08/31 03:56:01;;;;;;;7.93;3.78;;;15.70;99.90;;;;;;5051917;28;20648;-56
2022/08/31 03:58:30;;;;;;;12.75;4.65;;;15.70;99.90;;;;;;5051891;28;20177;-54
2022/08/31 04:00:56;;;;;;;10.02;3.40;;;15.70;99.90;;;;;;5051812;28;20173;-55
2022/08/31 04:03:23;;;;;;;13.52;4.00;;;15.60;99.90;;;;;;5051817;28;20543;-56
2022/08/31 04:05:49;;;;;;;15.25;3.70;;;15.70;99.90;;;;;;5051799;28;20176;-55
2022/08/31 04:08:17;;;;;;;12.38;4.05;;;15.60;99.90;;;;;;5051664;28;20556;-55
2022/08/31 04:10:45;;;;;;;9.35;4.10;;;15.60;99.90;;;;;;5051781;28;20648;-56
2022/08/31 04:13:11;;;;;;;9.55;4.00;;;15.60;99.90;;;;;;5051582;28;20181;-55
2022/08/31 04:15:37;;;;;;;9.70;4.18;;;15.60;99.90;;;;;;5051696;28;20165;-55
2022/08/31 04:18:04;;;;;;;8.90;4.55;;;15.50;99.90;;;;;;5051365;28;20169;-55
2022/08/31 04:20:37;;;;;;;12.00;4.85;;;15.50;99.90;;;;;;5051525;28;20165;-55
2022/08/31 04:23:03;;;;;;;11.82;4.72;;;15.50;99.90;;;;;;5051653;28;20180;-54
2022/08/31 04:25:29;;;;;;;17.50;4.75;;;15.50;99.90;;;;;;5051491;28;20268;-54
2022/08/31 04:27:55;;;;;;;10.48;4.85;;;15.50;99.90;;;;;;5051218;28;20260;-56
2022/08/31 04:30:21;;;;;;;17.17;5.32;;;15.40;99.90;;;;;;5051297;28;20217;-55
2022/08/31 04:32:48;;;;;;;11.43;5.05;;;15.40;99.90;;;;;;5051240;28;20173;-55
2022/08/31 04:35:14;;;;;;;9.13;6.13;;;15.40;99.90;;;;;;5051528;28;20299;-54
2022/08/31 04:37:40;;;;;;;10.32;5.88;;;15.30;99.90;;;;;;5051239;28;20695;-55
2022/08/31 04:40:16;;;;;;;13.60;5.65;;;15.30;99.90;;;;;;5051326;28;20173;-55
2022/08/31 04:42:51;;;;;;;13.57;5.70;;;15.30;99.90;;;;;;5051214;28;20184;-55
2022/08/31 04:45:17;;;;;;;11.45;6.28;;;15.30;99.90;;;;;;5051050;28;20168;-55
2022/08/31 04:47:43;;;;;;;16.73;6.07;;;15.30;99.90;;;;;;5051261;28;20184;-56
2022/08/31 04:50:10;;;;;;;12.63;6.50;;;15.30;99.90;;;;;;5050977;28;20209;-55
2022/08/31 04:52:36;;;;;;;13.20;6.85;;;15.20;99.90;;;;;;5051028;28;20161;-55
2022/08/31 04:55:02;;;;;;;16.30;7.25;;;15.20;99.90;;;;;;5051273;28;20177;-55
2022/08/31 04:57:30;;;;;;;18.58;9.00;;;15.20;99.90;;;;;;5050870;28;20188;-55
2022/08/31 04:59:56;;;;;;;16.30;8.68;;;15.20;99.90;;;;;;5050682;28;20177;-54
2022/08/31 05:02:22;;;;;;;18.73;8.55;;;15.10;99.90;;;;;;5050953;28;20245;-55
2022/08/31 05:04:47;;;;;;;21.92;8.95;;;15.10;99.90;;;;;;5050819;28;20260;-54
2022/08/31 05:07:13;;;;;;;14.57;8.40;;;15.10;99.90;;;;;;5050938;28;20235;-55
2022/08/31 05:09:39;;;;;;;13.02;8.77;;;15.10;99.90;;;;;;5050714;28;20699;-54
2022/08/31 05:12:04;;;;;;;16.00;8.95;;;15.10;99.90;;;;;;5050824;28;20512;-54
2022/08/31 05:14:30;;;;;;;13.52;8.57;;;15.10;99.90;;;;;;5050762;28;20199;-56
2022/08/31 05:16:56;;;;;;;14.90;9.00;;;15.10;99.90;;;;;;5050704;28;20169;-54
2022/08/31 05:19:21;;;;;;;14.63;9.13;;;15.10;99.90;;;;;;5050731;28;20175;-54
2022/08/31 05:21:47;;;;;;;18.52;9.30;;;15.00;99.90;;;;;;5050653;28;20636;-54
2022/08/31 05:24:21;;;;;;;19.77;10.07;;;15.00;99.90;;;;;;5050601;28;20544;-54
2022/08/31 05:26:49;;;;;;;22.13;9.93;;;15.00;99.90;;;;;;5051007;28;20523;-54
2022/08/31 05:29:18;;;;;;;18.55;10.30;;;15.00;99.90;;;;;;5050441;28;20326;-54
2022/08/31 05:31:44;;;;;;;15.35;9.73;;;15.00;99.90;;;;;;5050467;28;20161;-55
2022/08/31 05:34:19;;;;;;;17.48;9.57;;;15.00;99.90;;;;;;5050608;28;20182;-54
2022/08/31 05:36:50;;;;;;;14.40;10.00;;;15.00;99.90;;;;;;5050370;28;20180;-55
2022/08/31 05:39:16;;;;;;;17.33;9.93;;;15.00;99.90;;;;;;5051904;28;20235;-54
2022/08/31 05:41:43;;;;;;;13.27;10.15;;;15.10;99.90;;;;;;5054809;28;20173;-54
2022/08/31 05:44:10;;;;;;;20.48;10.35;;;15.00;99.90;;;;;;5054499;28;20169;-55
2022/08/31 05:46:36;;;;;;;20.80;11.15;;;15.00;99.90;;;;;;5054369;28;20176;-54
2022/08/31 05:49:04;;;;;;;17.02;10.27;;;15.00;99.90;;;;;;5054360;28;20698;-55
2022/08/31 05:51:31;;;;;;;21.65;10.02;;;15.00;99.90;;;;;;5054366;28;20196;-55
2022/08/31 05:54:01;;;;;;;14.10;9.98;;;15.10;99.90;;;;;;5054172;28;20184;-54
2022/08/31 05:56:26;;;;;;;18.95;10.95;;;15.00;99.90;;;;;;5054310;28;20172;-55
2022/08/31 05:58:54;;;;;;;17.02;10.60;;;15.10;99.90;;;;;;5054274;28;20177;-54
2022/08/31 06:01:31;;;;;;;17.50;10.35;;;15.10;99.90;;;;;;5054170;28;20172;-54
2022/08/31 06:03:58;;;;;;;17.10;9.90;;;15.10;99.90;;;;;;5054009;28;20183;-54
2022/08/31 06:06:25;;;;;;;18.60;10.65;;;15.00;99.90;;;;;;5053845;28;20173;-55
2022/08/31 06:08:51;;;;;;;20.20;10.25;;;15.10;99.90;;;;;;5053852;28;20208;-55
2022/08/31 06:11:19;;;;;;;20.13;11.52;;;15.10;99.90;;;;;;5053901;28;20231;-54
2022/08/31 06:13:49;;;;;;;16.33;10.23;;;15.10;99.90;;;;;;5054169;28;20184;-55
2022/08/31 06:16:16;;;;;;;15.52;10.18;;;15.20;99.90;;;;;;5053949;28;20181;-56
2022/08/31 06:18:48;;;;;;;20.92;10.23;;;15.10;99.90;;;;;;5053797;28;20241;-56
2022/08/31 06:21:15;;;;;;;18.92;9.68;;;15.10;99.90;;;;;;5053711;28;20177;-55
2022/08/31 06:23:42;;;;;;;22.48;10.07;;;15.20;99.90;;;;;;5053638;28;20632;-55
2022/08/31 06:26:14;;;;;;;18.33;10.52;;;15.20;99.90;;;;;;5053620;28;20166;-55
2022/08/31 06:28:46;;;;;;;18.77;9.98;;;15.20;99.90;;;;;;5053539;28;20827;-55
2022/08/31 06:31:14;;;;;;;13.02;9.73;;;15.30;99.90;;;;;;5053599;28;20165;-55
2022/08/31 06:33:42;;;;;;;13.02;9.68;;;15.30;99.90;;;;;;5053404;28;20178;-55
2022/08/31 06:36:17;;;;;;;16.23;9.52;;;15.30;99.90;;;;;;5053729;28;20170;-55
2022/08/31 06:38:43;;;;;;;15.88;9.00;;;15.40;99.90;;;;;;5053192;28;20212;-56
2022/08/31 06:41:16;;;;;;;17.73;8.52;;;15.40;99.90;;;;;;5053257;28;20646;-56
2022/08/31 06:43:43;;;;;;;20.48;9.23;;;15.50;99.90;;;;;;5053386;28;20188;-56
2022/08/31 06:46:10;;;;;;;13.68;7.88;;;15.50;99.90;;;;;;5053438;28;20181;-56
2022/08/31 06:48:35;;;;;;;19.35;7.68;;;15.60;99.90;;;;;;5053312;28;20235;-57
2022/08/31 06:51:02;;;;;;;20.88;8.50;;;15.70;99.90;;;;;;5051809;28;20699;-55
2022/08/31 06:53:28;;;;;;;14.95;7.82;;;15.70;99.90;;;;;;5053058;28;20235;-54
2022/08/31 06:55:54;;;;;;;18.88;8.00;;;15.80;99.90;;;;;;5052924;28;20655;-58
2022/08/31 06:58:20;;;;;;;14.07;8.38;;;15.80;99.90;;;;;;5052976;28;20699;-54
2022/08/31 07:00:48;;;;;;;18.40;7.97;;;15.90;99.90;;;;;;5053017;28;20265;-55
2022/08/31 07:03:23;;;;;;;13.05;7.38;;;15.90;99.90;;;;;;5052867;28;20255;-55
2022/08/31 07:05:51;;;;;;;14.95;8.00;;;15.90;99.90;;;;;;5052953;28;20195;-55
2022/08/31 07:08:17;;;;;;;13.05;7.88;;;16.10;99.90;;;;;;5052786;28;20173;-55
2022/08/31 07:10:43;;;;;;;11.07;6.90;;;16.10;99.90;;;;;;5052809;28;20177;-54
2022/08/31 07:13:09;;;;;;;19.13;6.53;;;16.20;99.90;;;;;;5051392;28;20169;-54
2022/08/31 07:15:34;;;;;;;18.88;8.02;;;16.30;99.90;;;;;;5052645;28;20253;-55
2022/08/31 07:18:00;;;;;;;19.88;7.38;;;16.40;99.90;;;;;;5052609;28;20177;-55
2022/08/31 07:20:26;;;;;;;13.38;7.55;;;16.40;99.90;;;;;;5052766;28;20173;-54
2022/08/31 07:22:51;;;;;;;15.27;7.75;;;16.50;99.90;;;;;;5052476;28;20758;-54
2022/08/31 07:25:17;;;;;;;17.15;7.05;;;16.70;99.90;;;;;;5052471;28;20173;-54
2022/08/31 07:27:43;;;;;;;11.52;6.95;;;16.70;99.90;;;;;;5052601;28;20275;-56
2022/08/31 07:30:10;;;;;;;11.30;7.00;;;16.80;99.90;;;;;;5052355;28;20267;-55
2022/08/31 07:32:37;;;;;;;15.48;7.80;;;16.90;99.90;;;;;;5052295;28;20185;-56
2022/08/31 07:35:04;;;;;;;16.50;7.10;;;17.00;99.90;;;;;;5052385;28;20207;-55
2022/08/31 07:43:03;;;;;;;14.75;6.72;;;17.20;99.90;;;;;;5052408;28;20188;-54
2022/08/31 07:45:29;;;;;;;17.70;6.70;;;17.40;99.90;;;;;;5052246;28;20533;-55
2022/08/31 07:47:58;;;;;;;11.10;6.40;;;17.50;99.90;;;;;;5051973;28;20173;-55
2022/08/31 07:50:26;;;;;;;14.00;6.18;;;17.70;99.90;;;;;;5051971;28;20216;-54
2022/08/31 07:52:56;;;;;;;11.63;6.13;;;17.80;99.90;;;;;;5051905;28;20276;-55
2022/08/31 07:55:24;;;;;;;12.20;5.97;;;17.90;99.90;;;;;;5052288;28;20246;-55
2022/08/31 07:57:52;;;;;;;10.15;5.28;;;18.10;99.90;;;;;;5051811;28;20659;-56
2022/08/31 08:00:31;;;;;;;13.68;5.47;;;18.20;99.90;;;;;;5051905;28;20175;-55
2022/08/31 08:03:06;;;;;;;12.07;4.70;;;18.40;99.90;;;;;;5051353;28;20252;-56
2022/08/31 08:05:40;;;;;;;11.68;4.55;;;19.00;99.90;;;;;;5051668;28;20173;-56
2022/08/31 08:08:08;;;;;;;13.30;4.65;;;18.70;99.90;;;;;;5051687;28;20234;-56
2022/08/31 08:10:39;;;;;;;14.70;4.68;;;18.80;99.90;;;;;;5051693;28;20227;-56
2022/08/31 08:13:05;;;;;;;11.05;4.22;;;18.90;99.90;;;;;;5051628;28;20260;-55
2022/08/31 08:15:32;;;;;;;9.15;3.83;;;19.20;99.90;;;;;;5051601;28;20268;-55
2022/08/31 08:17:59;;;;;;;14.18;4.18;;;19.70;99.90;;;;;;5051625;28;20290;-56
2022/08/31 08:20:25;;;;;;;8.07;3.70;;;20.10;99.90;;;;;;5051660;28;20169;-56
2022/08/31 08:22:51;;;;;;;7.95;4.38;;;20.40;99.90;;;;;;5051642;28;20183;-57
2022/08/31 08:25:17;;;;;;;12.40;4.00;;;20.80;99.90;;;;;;5051641;28;20264;-57
2022/08/31 08:27:42;;;;;;;9.88;3.72;;;21.10;99.90;;;;;;5051531;28;20174;-56
2022/08/31 08:30:13;;;;;;;9.98;4.35;;;21.10;99.90;;;;;;5051256;28;20224;-57
2022/08/31 08:32:42;;;;;;;8.85;3.53;;;21.10;99.90;;;;;;5051405;28;20189;-56
2022/08/31 08:35:09;;;;;;;12.77;3.55;;;20.80;99.90;;;;;;5050934;28;20227;-56
2022/08/31 08:37:38;;;;;;;9.25;3.05;;;20.80;99.90;;;;;;5051138;28;20228;-56
2022/08/31 08:40:05;;;;;;;6.30;3.03;;;21.00;99.90;;;;;;5051203;28;20640;-56
2022/08/31 08:42:32;;;;;;;11.18;3.08;;;21.10;99.90;;;;;;5051200;28;20205;-56
2022/08/31 08:44:58;;;;;;;7.63;2.95;;;21.80;99.90;;;;;;5050868;28;20169;-56
2022/08/31 08:47:27;;;;;;;9.88;3.33;;;22.50;99.90;;;;;;5050958;28;20260;-55
2022/08/31 08:49:56;;;;;;;7.72;2.80;;;23.20;99.90;;;;;;5050931;28;20749;-56
2022/08/31 08:52:21;;;;;;;11.05;3.13;;;24.00;99.90;;;;;;5051066;28;20231;-56
2022/08/31 08:54:48;;;;;;;8.68;2.88;;;24.40;99.90;;;;;;5050925;28;20648;-57
2022/08/31 08:57:28;;;;;;;6.47;2.42;;;24.80;99.90;;;;;;5050888;28;20210;-56
2022/08/31 08:59:57;;;;;;;14.15;3.10;;;25.30;99.90;;;;;;5050967;28;20622;-57
2022/08/31 09:02:56;;;;;;;18.50;3.20;;;25.40;99.90;;;;;;5050955;28;20201;-58
2022/08/31 09:06:00;;;;;;;12.57;2.63;;;25.50;99.90;;;;;;5049099;28;20181;-53
2022/08/31 09:09:09;;;;;;;9.38;2.47;;;24.80;99.90;;;;;;5050779;28;20181;-57
2022/08/31 09:11:56;;;;;;;8.68;2.10;;;25.00;99.90;;;;;;5050798;28;20185;-56
2022/08/31 09:14:46;;;;;;;9.90;2.63;;;24.60;99.90;;;;;;5049844;28;20630;-55
2022/08/31 09:17:49;;;;;;;11.38;2.50;;;24.10;99.90;;;;;;5050845;28;20161;-56
2022/08/31 09:20:16;;;;;;;9.02;2.50;;;23.60;99.90;;;;;;5050480;28;20164;-55
2022/08/31 09:22:54;;;;;;;6.47;2.60;;;23.10;99.90;;;;;;5050560;28;20205;-56
2022/08/31 09:25:57;;;;;;;9.30;2.90;;;22.80;99.90;;;;;;5050868;28;20231;-56
2022/08/31 09:28:44;;;;;;;10.52;2.30;;;22.60;99.90;;;;;;5038568;28;20242;-55
2022/08/31 09:31:32;;;;;;;12.68;2.53;;;22.50;99.90;;;;;;5050725;28;20239;-56
2022/08/31 09:33:59;;;;;;;19.67;2.90;;;22.60;99.90;;;;;;5050639;28;20272;-55
2022/08/31 09:36:39;;;;;;;6.32;2.17;;;22.80;99.90;;;;;;5050393;28;20215;-55
2022/08/31 09:39:29;;;;;;;8.85;2.53;;;22.90;99.90;;;;;;5050251;28;20228;-56
2022/08/31 09:42:02;;;;;;;9.13;2.08;;;23.20;99.90;;;;;;5050529;28;20197;-56
2022/08/31 09:44:34;;;;;;;14.90;2.47;;;23.40;99.90;;;;;;5082675;28;20643;-55
2022/08/31 09:47:47;;;;;;;8.85;2.45;;;23.60;99.90;;;;;;5050259;28;20181;-55
2022/08/31 09:50:23;;;;;;;8.15;2.15;;;24.30;99.90;;;;;;5050453;28;20205;-56
2022/08/31 09:55:33;;;;;;;9.68;1.90;;;25.20;99.90;;;;;;5050281;28;20261;-55
2022/08/31 09:58:03;;;;;;;9.43;1.75;;;25.70;99.90;;;;;;5049109;28;20244;-56
2022/08/31 10:00:38;;;;;;;9.90;1.75;;;26.10;99.90;;;;;;5050414;28;20258;-56
2022/08/31 10:03:10;;;;;;;12.32;2.20;;;26.50;99.90;;;;;;5050161;28;20598;-57
2022/08/31 10:05:43;;;;;;;9.00;2.75;;;27.40;99.90;;;;;;5050334;28;20197;-57
2022/08/31 10:08:27;;;;;;;7.40;2.17;;;28.20;99.90;;;;;;5050162;28;20189;-56
2022/08/31 10:11:00;;;;;;;8.25;2.10;;;28.30;99.90;;;;;;5050392;28;20217;-57
2022/08/31 10:14:03;;;;;;;8.05;1.77;;;28.30;99.90;;;;;;5050171;28;20169;-57
2022/08/31 10:16:36;;;;;;;5.07;2.10;;;27.90;99.90;;;;;;5050636;28;20218;-56
2022/08/31 10:19:10;;;;;;;6.20;1.83;;;26.90;99.90;;;;;;5050084;28;20260;-57
2022/08/31 10:22:05;;;;;;;7.10;1.63;;;26.50;99.90;;;;;;5049045;28;20174;-58
2022/08/31 10:24:45;;;;;;;8.13;1.95;;;27.80;99.90;;;;;;5081178;28;20667;-58
2022/08/31 10:27:30;;;;;;;7.80;1.67;;;28.80;99.90;;;;;;5053640;28;20173;-58
2022/08/31 10:30:07;;;;;;;6.75;1.83;;;29.70;99.90;;;;;;5053672;28;20695;-58
2022/08/31 10:32:44;;;;;;;5.15;1.60;;;29.40;99.90;;;;;;5053578;28;20165;-58
2022/08/31 10:35:18;;;;;;;9.40;2.10;;;29.00;99.90;;;;;;5053471;28;20169;-58
2022/08/31 10:38:16;;;;;;;13.18;1.98;;;28.60;99.90;;;;;;5053267;28;20224;-58
2022/08/31 10:40:53;;;;;;;5.30;2.00;;;28.20;99.90;;;;;;5053529;28;20208;-58
2022/08/31 10:43:25;;;;;;;9.82;2.72;;;27.70;99.90;;;;;;5053378;28;20173;-58
2022/08/31 10:45:52;;;;;;;7.47;2.17;;;28.20;99.90;;;;;;5052487;28;20224;-58
2022/08/31 10:48:21;;;;;;;9.77;1.83;;;28.80;99.90;;;;;;5053362;28;20165;-58
2022/08/31 10:51:05;;;;;;;6.30;2.00;;;29.50;99.90;;;;;;5053348;28;20195;-58
2022/08/31 10:54:01;;;;;;;5.70;1.70;;;30.90;99.90;;;;;;5053158;28;20165;-58
2022/08/31 10:56:38;;;;;;;5.47;1.90;;;31.60;99.90;;;;;;5053216;28;20177;-58
2022/08/31 10:59:07;;;;;;;11.45;2.20;;;32.40;99.90;;;;;;5053149;28;20195;-57
2022/08/31 11:01:53;;;;;;;3.45;1.65;;;32.80;99.90;;;;;;5052761;28;20169;-57
2022/08/31 11:04:32;;;;;;;8.75;1.63;;;31.90;99.90;;;;;;5052885;28;20165;-57
2022/08/31 11:07:11;;;;;;;10.43;1.80;;;30.90;99.90;;;;;;5053175;28;20189;-57
2022/08/31 11:09:54;;;;;;;5.57;1.48;;;30.60;99.90;;;;;;5052844;28;20208;-57
2022/08/31 11:12:29;;;;;;;5.70;1.70;;;29.50;99.90;;;;;;5052766;28;20223;-56
2022/08/31 11:15:34;;;;;;;6.60;1.77;;;28.40;99.90;;;;;;5052623;28;20547;-57
2022/08/31 11:18:42;;;;;;;6.68;1.83;;;27.90;99.90;;;;;;5052037;28;20189;-57
2022/08/31 11:21:34;;;;;;;3.35;1.30;;;28.40;99.90;;;;;;5052363;28;20761;-57
2022/08/31 11:24:24;;;;;;;6.18;1.60;;;29.00;99.90;;;;;;5062006;28;20195;-57
2022/08/31 11:27:02;;;;;;;6.97;1.40;;;29.50;99.90;;;;;;5052700;28;20244;-57
2022/08/31 11:29:33;;;;;;;7.90;1.73;;;28.70;99.90;;;;;;5052550;28;20709;-57
2022/08/31 11:32:07;;;;;;;7.00;2.80;;;28.80;99.90;;;;;;5052467;28;20173;-57
2022/08/31 11:34:46;;;;;;;5.43;1.25;;;29.10;99.90;;;;;;5052320;28;20197;-57
2022/08/31 11:37:32;;;;;;;7.45;1.60;;;29.80;99.90;;;;;;5051140;28;20217;-58
2022/08/31 11:39:58;;;;;;;6.93;1.65;;;30.30;99.90;;;;;;5051940;28;20176;-57
2022/08/31 11:42:26;;;;;;;5.13;1.40;;;31.10;99.90;;;;;;5052201;28;20252;-57
2022/08/31 11:45:08;;;;;;;6.13;1.40;;;31.60;99.90;;;;;;5052281;28;20219;-57
2022/08/31 11:47:41;;;;;;;6.53;1.60;;;31.40;99.90;;;;;;5052102;28;20169;-57
2022/08/31 11:50:21;;;;;;;7.93;1.50;;;30.10;99.90;;;;;;5051960;28;20217;-58
2022/08/31 11:52:52;;;;;;;9.13;1.73;;;29.90;99.90;;;;;;5052297;28;20215;-57
2022/08/31 11:55:22;;;;;;;9.98;3.15;;;29.40;99.90;;;;;;5052299;28;20173;-57
2022/08/31 11:58:06;;;;;;;7.82;2.10;;;30.10;99.90;;;;;;5052102;28;20169;-57
2022/08/31 12:00:42;;;;;;;6.32;1.90;;;31.80;99.90;;;;;;5051836;28;20177;-57
2022/08/31 12:03:09;;;;;;;5.60;1.88;;;33.00;99.90;;;;;;5051870;28;20169;-57
2022/08/31 12:05:49;;;;;;;7.80;1.77;;;34.30;99.90;;;;;;5051635;28;20170;-57
2022/08/31 12:08:16;;;;;;;4.72;1.63;;;35.70;99.90;;;;;;5051704;28;20181;-58
2022/08/31 12:10:58;;;;;;;10.30;2.00;;;36.60;99.90;;;;;;5051591;28;20213;-58
2022/08/31 12:13:43;;;;;;;5.60;1.70;;;37.70;99.90;;;;;;5051625;28;20176;-58
2022/08/31 12:16:56;;;;;;;6.38;1.48;;;38.20;99.90;;;;;;5051672;28;20184;-57
2022/08/31 12:25:59;;;;;;;7.30;1.50;;;35.30;99.90;;;;;;5019253;28;20180;-58
2022/08/31 12:29:02;;;;;;;5.50;1.83;;;36.50;99.90;;;;;;5051069;28;20607;-57
2022/08/31 12:31:27;;;;;;;6.30;1.45;;;37.70;99.90;;;;;;5051207;28;20181;-58
2022/08/31 12:34:03;;;;;;;6.47;1.67;;;37.10;99.90;;;;;;5050941;28;20673;-57
2022/08/31 12:36:32;;;;;;;7.50;1.88;;;36.40;99.90;;;;;;5051011;28;20176;-58
2022/08/31 12:39:10;;;;;;;9.43;2.28;;;37.30;99.90;;;;;;5051076;28;20220;-57
2022/08/31 12:42:09;;;;;;;4.53;1.77;;;36.20;99.90;;;;;;5050941;28;20172;-57
2022/08/31 12:44:48;;;;;;;10.48;2.20;;;35.40;99.90;;;;;;5040013;28;20238;-57
2022/08/31 12:47:14;;;;;;;4.88;1.70;;;36.30;99.90;;;;;;5051004;28;20179;-57
2022/08/31 12:49:59;;;;;;;5.47;1.70;;;35.20;99.90;;;;;;5050815;28;20205;-56
2022/08/31 12:52:43;;;;;;;7.13;1.60;;;33.90;99.90;;;;;;5050912;28;20188;-58
2022/08/31 12:55:33;;;;;;;9.48;2.13;;;31.80;99.90;;;;;;5050781;28;20173;-57
2022/08/31 12:58:17;;;;;;;3.70;1.60;;;30.40;99.90;;;;;;5050921;28;20200;-57
2022/08/31 13:00:44;;;;;;;5.07;1.50;;;29.80;99.90;;;;;;5050839;28;20177;-57
2022/08/31 13:03:23;;;;;;;6.85;1.60;;;29.90;99.90;;;;;;5049633;28;20222;-57
2022/08/31 13:06:08;;;;;;;7.03;1.33;;;30.80;99.90;;;;;;5050663;28;20268;-57
2022/08/31 13:08:47;;;;;;;6.43;1.75;;;31.80;99.90;;;;;;5050502;28;20169;-57
2022/08/31 13:11:41;;;;;;;9.13;1.85;;;31.60;99.90;;;;;;5050820;28;20227;-57
2022/08/31 13:14:13;;;;;;;4.07;1.52;;;30.30;99.90;;;;;;5044933;28;20644;-57
2022/08/31 13:16:48;;;;;;;4.93;1.60;;;29.60;99.90;;;;;;5050665;28;20188;-58
2022/08/31 13:19:25;;;;;;;4.38;1.40;;;28.90;99.90;;;;;;5050780;28;20169;-57
2022/08/31 13:22:04;;;;;;;6.00;1.80;;;28.70;99.90;;;;;;5050574;28;20185;-58